sensor_id;sensor_type;location;lat;lon;timestamp;P1;durP1;ratioP1;P2;durP2;ratioP2
54795;SDS011;40693;43.884;20.340;2023-11-18T00:00:49;4.28;;;3.10;;
54795;SDS011;40693;43.884;20.340;2023-11-18T00:03:15;9.15;;;5.53;;
54795;SDS011;40693;43.884;20.340;2023-11-18T00:05:41;5.72;;;3.72;;
54795;SDS011;40693;43.884;20.340;2023-11-18T00:08:07;5.45;;;3.40;;
54795;SDS011;40693;43.884;20.340;2023-11-18T00:10:33;6.00;;;3.60;;
54795;SDS011;40693;43.884;20.340;2023-11-18T00:12:59;6.85;;;4.30;;
54795;SDS011;40693;43.884;20.340;2023-11-18T00:15:26;7.65;;;3.95;;
54795;SDS011;40693;43.884;20.340;2023-11-18T00:17:52;8.82;;;4.30;;
54795;SDS011;40693;43.884;20.340;2023-11-18T00:20:18;13.15;;;6.65;;
54795;SDS011;40693;43.884;20.340;2023-11-18T00:22:45;12.00;;;5.75;;
54795;SDS011;40693;43.884;20.340;2023-11-18T00:25:11;6.45;;;3.75;;
54795;SDS011;40693;43.884;20.340;2023-11-18T00:27:39;6.25;;;4.00;;
54795;SDS011;40693;43.884;20.340;2023-11-18T00:30:05;7.97;;;3.45;;
54795;SDS011;40693;43.884;20.340;2023-11-18T00:32:33;6.00;;;3.63;;
54795;SDS011;40693;43.884;20.340;2023-11-18T00:35:00;7.85;;;3.67;;
54795;SDS011;40693;43.884;20.340;2023-11-18T00:37:26;7.63;;;2.80;;
54795;SDS011;40693;43.884;20.340;2023-11-18T00:39:52;4.95;;;2.72;;
54795;SDS011;40693;43.884;20.340;2023-11-18T00:42:18;4.72;;;2.97;;
54795;SDS011;40693;43.884;20.340;2023-11-18T00:44:43;5.25;;;3.08;;
54795;SDS011;40693;43.884;20.340;2023-11-18T00:47:09;7.40;;;3.58;;
54795;SDS011;40693;43.884;20.340;2023-11-18T00:49:35;5.45;;;3.03;;
54795;SDS011;40693;43.884;20.340;2023-11-18T00:52:01;10.40;;;6.80;;
54795;SDS011;40693;43.884;20.340;2023-11-18T00:54:26;9.82;;;4.38;;
54795;SDS011;40693;43.884;20.340;2023-11-18T00:56:52;10.68;;;6.03;;
54795;SDS011;40693;43.884;20.340;2023-11-18T00:59:18;10.90;;;8.02;;
54795;SDS011;40693;43.884;20.340;2023-11-18T01:01:44;13.18;;;7.75;;
54795;SDS011;40693;43.884;20.340;2023-11-18T01:04:09;16.80;;;10.27;;
54795;SDS011;40693;43.884;20.340;2023-11-18T01:06:35;19.98;;;9.70;;
54795;SDS011;40693;43.884;20.340;2023-11-18T01:09:01;17.00;;;9.15;;
54795;SDS011;40693;43.884;20.340;2023-11-18T01:11:27;17.42;;;10.40;;
54795;SDS011;40693;43.884;20.340;2023-11-18T01:13:53;10.02;;;6.53;;
54795;SDS011;40693;43.884;20.340;2023-11-18T01:16:19;25.38;;;14.10;;
54795;SDS011;40693;43.884;20.340;2023-11-18T01:18:45;26.02;;;15.93;;
54795;SDS011;40693;43.884;20.340;2023-11-18T01:21:11;6.97;;;4.35;;
54795;SDS011;40693;43.884;20.340;2023-11-18T01:23:38;16.40;;;10.82;;
54795;SDS011;40693;43.884;20.340;2023-11-18T01:26:08;6.22;;;3.95;;
54795;SDS011;40693;43.884;20.340;2023-11-18T01:28:37;14.05;;;10.93;;
54795;SDS011;40693;43.884;20.340;2023-11-18T01:31:07;8.18;;;4.18;;
54795;SDS011;40693;43.884;20.340;2023-11-18T01:33:38;5.30;;;3.10;;
54795;SDS011;40693;43.884;20.340;2023-11-18T01:36:08;4.53;;;3.00;;
54795;SDS011;40693;43.884;20.340;2023-11-18T01:38:35;6.60;;;4.32;;
54795;SDS011;40693;43.884;20.340;2023-11-18T01:41:02;4.18;;;2.97;;
54795;SDS011;40693;43.884;20.340;2023-11-18T01:43:31;6.78;;;4.18;;
54795;SDS011;40693;43.884;20.340;2023-11-18T01:45:59;3.47;;;2.60;;
54795;SDS011;40693;43.884;20.340;2023-11-18T01:48:27;5.28;;;3.42;;
54795;SDS011;40693;43.884;20.340;2023-11-18T01:50:54;3.20;;;2.13;;
54795;SDS011;40693;43.884;20.340;2023-11-18T01:53:23;5.28;;;2.28;;
54795;SDS011;40693;43.884;20.340;2023-11-18T01:55:49;5.07;;;3.47;;
54795;SDS011;40693;43.884;20.340;2023-11-18T01:58:16;5.43;;;4.53;;
54795;SDS011;40693;43.884;20.340;2023-11-18T02:00:44;4.75;;;3.30;;
54795;SDS011;40693;43.884;20.340;2023-11-18T02:03:11;4.15;;;2.65;;
54795;SDS011;40693;43.884;20.340;2023-11-18T02:05:37;3.05;;;2.22;;
54795;SDS011;40693;43.884;20.340;2023-11-18T02:08:04;3.65;;;2.45;;
54795;SDS011;40693;43.884;20.340;2023-11-18T02:10:33;4.72;;;2.75;;
54795;SDS011;40693;43.884;20.340;2023-11-18T02:15:35;4.57;;;2.60;;
54795;SDS011;40693;43.884;20.340;2023-11-18T02:18:03;3.33;;;2.30;;
54795;SDS011;40693;43.884;20.340;2023-11-18T02:20:35;5.13;;;2.38;;
54795;SDS011;40693;43.884;20.340;2023-11-18T02:23:02;3.60;;;2.30;;
54795;SDS011;40693;43.884;20.340;2023-11-18T02:25:29;3.05;;;2.22;;
54795;SDS011;40693;43.884;20.340;2023-11-18T02:27:59;4.18;;;2.50;;
54795;SDS011;40693;43.884;20.340;2023-11-18T02:30:25;2.70;;;2.15;;
54795;SDS011;40693;43.884;20.340;2023-11-18T02:33:03;3.58;;;1.98;;
54795;SDS011;40693;43.884;20.340;2023-11-18T02:35:53;4.05;;;2.70;;
54795;SDS011;40693;43.884;20.340;2023-11-18T02:38:26;3.65;;;2.22;;
54795;SDS011;40693;43.884;20.340;2023-11-18T02:41:01;3.72;;;2.10;;
54795;SDS011;40693;43.884;20.340;2023-11-18T02:43:33;2.67;;;2.25;;
54795;SDS011;40693;43.884;20.340;2023-11-18T02:46:03;4.10;;;2.38;;
54795;SDS011;40693;43.884;20.340;2023-11-18T02:48:32;3.67;;;2.47;;
54795;SDS011;40693;43.884;20.340;2023-11-18T02:50:58;3.65;;;2.00;;
54795;SDS011;40693;43.884;20.340;2023-11-18T02:53:24;3.00;;;1.98;;
54795;SDS011;40693;43.884;20.340;2023-11-18T02:55:50;4.97;;;2.50;;
54795;SDS011;40693;43.884;20.340;2023-11-18T02:58:19;2.92;;;1.85;;
54795;SDS011;40693;43.884;20.340;2023-11-18T03:00:45;4.35;;;2.80;;
54795;SDS011;40693;43.884;20.340;2023-11-18T03:03:11;3.50;;;2.25;;
54795;SDS011;40693;43.884;20.340;2023-11-18T03:05:37;2.58;;;1.77;;
54795;SDS011;40693;43.884;20.340;2023-11-18T03:08:03;3.38;;;2.00;;
54795;SDS011;40693;43.884;20.340;2023-11-18T03:10:34;2.90;;;1.80;;
54795;SDS011;40693;43.884;20.340;2023-11-18T03:13:00;3.25;;;2.10;;
54795;SDS011;40693;43.884;20.340;2023-11-18T03:15:26;4.50;;;2.10;;
54795;SDS011;40693;43.884;20.340;2023-11-18T03:17:53;3.63;;;2.17;;
54795;SDS011;40693;43.884;20.340;2023-11-18T03:20:20;3.15;;;2.08;;
54795;SDS011;40693;43.884;20.340;2023-11-18T03:22:48;2.42;;;1.70;;
54795;SDS011;40693;43.884;20.340;2023-11-18T03:25:15;3.55;;;2.28;;
54795;SDS011;40693;43.884;20.340;2023-11-18T03:27:42;3.10;;;2.30;;
54795;SDS011;40693;43.884;20.340;2023-11-18T03:30:09;4.88;;;2.03;;
54795;SDS011;40693;43.884;20.340;2023-11-18T03:32:36;3.88;;;2.25;;
54795;SDS011;40693;43.884;20.340;2023-11-18T03:35:03;3.78;;;2.45;;
54795;SDS011;40693;43.884;20.340;2023-11-18T03:37:33;4.45;;;2.60;;
54795;SDS011;40693;43.884;20.340;2023-11-18T03:40:05;4.13;;;2.03;;
54795;SDS011;40693;43.884;20.340;2023-11-18T03:42:31;2.95;;;2.20;;
54795;SDS011;40693;43.884;20.340;2023-11-18T03:44:57;5.07;;;3.13;;
54795;SDS011;40693;43.884;20.340;2023-11-18T03:47:23;4.35;;;2.88;;
54795;SDS011;40693;43.884;20.340;2023-11-18T03:49:49;5.20;;;3.42;;
54795;SDS011;40693;43.884;20.340;2023-11-18T03:52:15;3.22;;;2.50;;
54795;SDS011;40693;43.884;20.340;2023-11-18T03:54:41;4.55;;;3.72;;
54795;SDS011;40693;43.884;20.340;2023-11-18T03:57:07;3.97;;;2.42;;
54795;SDS011;40693;43.884;20.340;2023-11-18T03:59:33;7.18;;;3.20;;
54795;SDS011;40693;43.884;20.340;2023-11-18T04:01:58;4.70;;;2.30;;
54795;SDS011;40693;43.884;20.340;2023-11-18T04:04:24;3.70;;;2.53;;
54795;SDS011;40693;43.884;20.340;2023-11-18T04:06:50;7.30;;;3.13;;
54795;SDS011;40693;43.884;20.340;2023-11-18T04:09:15;3.25;;;2.47;;
54795;SDS011;40693;43.884;20.340;2023-11-18T04:11:41;7.82;;;3.40;;
54795;SDS011;40693;43.884;20.340;2023-11-18T04:14:10;2.67;;;2.03;;
54795;SDS011;40693;43.884;20.340;2023-11-18T04:16:36;4.85;;;3.10;;
54795;SDS011;40693;43.884;20.340;2023-11-18T04:19:03;3.87;;;3.10;;
54795;SDS011;40693;43.884;20.340;2023-11-18T04:21:29;6.35;;;3.58;;
54795;SDS011;40693;43.884;20.340;2023-11-18T04:23:54;6.93;;;2.93;;
54795;SDS011;40693;43.884;20.340;2023-11-18T04:26:20;3.77;;;2.57;;
54795;SDS011;40693;43.884;20.340;2023-11-18T04:28:46;5.78;;;2.70;;
54795;SDS011;40693;43.884;20.340;2023-11-18T04:31:11;8.38;;;2.80;;
54795;SDS011;40693;43.884;20.340;2023-11-18T04:33:38;5.38;;;3.40;;
54795;SDS011;40693;43.884;20.340;2023-11-18T04:36:05;3.08;;;2.10;;
54795;SDS011;40693;43.884;20.340;2023-11-18T04:38:34;3.25;;;2.25;;
54795;SDS011;40693;43.884;20.340;2023-11-18T04:41:01;4.57;;;3.47;;
54795;SDS011;40693;43.884;20.340;2023-11-18T04:43:29;3.47;;;2.20;;
54795;SDS011;40693;43.884;20.340;2023-11-18T04:45:55;3.80;;;2.95;;
54795;SDS011;40693;43.884;20.340;2023-11-18T04:48:21;3.67;;;2.07;;
54795;SDS011;40693;43.884;20.340;2023-11-18T04:50:47;2.77;;;1.77;;
54795;SDS011;40693;43.884;20.340;2023-11-18T04:53:13;5.53;;;2.40;;
54795;SDS011;40693;43.884;20.340;2023-11-18T04:55:38;3.43;;;2.17;;
54795;SDS011;40693;43.884;20.340;2023-11-18T04:58:05;4.27;;;2.57;;
54795;SDS011;40693;43.884;20.340;2023-11-18T05:00:31;5.32;;;2.25;;
54795;SDS011;40693;43.884;20.340;2023-11-18T05:03:03;3.20;;;2.25;;
54795;SDS011;40693;43.884;20.340;2023-11-18T05:05:29;3.20;;;2.30;;
54795;SDS011;40693;43.884;20.340;2023-11-18T05:07:55;2.65;;;2.08;;
54795;SDS011;40693;43.884;20.340;2023-11-18T05:10:21;4.32;;;2.47;;
54795;SDS011;40693;43.884;20.340;2023-11-18T05:12:47;3.20;;;1.97;;
54795;SDS011;40693;43.884;20.340;2023-11-18T05:15:21;4.27;;;2.50;;
54795;SDS011;40693;43.884;20.340;2023-11-18T05:17:50;3.83;;;2.22;;
54795;SDS011;40693;43.884;20.340;2023-11-18T05:20:16;4.65;;;2.75;;
54795;SDS011;40693;43.884;20.340;2023-11-18T05:22:42;4.03;;;2.10;;
54795;SDS011;40693;43.884;20.340;2023-11-18T05:25:08;3.97;;;2.58;;
54795;SDS011;40693;43.884;20.340;2023-11-18T05:27:35;5.23;;;2.27;;
54795;SDS011;40693;43.884;20.340;2023-11-18T05:30:00;2.97;;;1.93;;
54795;SDS011;40693;43.884;20.340;2023-11-18T05:32:27;3.63;;;2.33;;
54795;SDS011;40693;43.884;20.340;2023-11-18T05:34:53;3.23;;;2.20;;
54795;SDS011;40693;43.884;20.340;2023-11-18T05:37:20;4.10;;;2.60;;
54795;SDS011;40693;43.884;20.340;2023-11-18T05:39:46;4.83;;;2.50;;
54795;SDS011;40693;43.884;20.340;2023-11-18T05:42:14;3.00;;;2.00;;
54795;SDS011;40693;43.884;20.340;2023-11-18T05:44:40;5.40;;;2.63;;
54795;SDS011;40693;43.884;20.340;2023-11-18T05:47:07;5.37;;;4.03;;
54795;SDS011;40693;43.884;20.340;2023-11-18T05:49:36;5.63;;;4.07;;
54795;SDS011;40693;43.884;20.340;2023-11-18T05:52:03;2.92;;;2.20;;
54795;SDS011;40693;43.884;20.340;2023-11-18T05:54:29;2.23;;;2.00;;
54795;SDS011;40693;43.884;20.340;2023-11-18T05:56:55;3.42;;;2.55;;
54795;SDS011;40693;43.884;20.340;2023-11-18T05:59:21;5.88;;;2.67;;
54795;SDS011;40693;43.884;20.340;2023-11-18T06:01:48;6.93;;;4.47;;
54795;SDS011;40693;43.884;20.340;2023-11-18T06:04:14;5.63;;;3.20;;
54795;SDS011;40693;43.884;20.340;2023-11-18T06:06:40;5.73;;;3.60;;
54795;SDS011;40693;43.884;20.340;2023-11-18T06:09:07;4.77;;;2.93;;
54795;SDS011;40693;43.884;20.340;2023-11-18T06:11:43;7.97;;;5.37;;
54795;SDS011;40693;43.884;20.340;2023-11-18T06:14:10;5.77;;;4.30;;
54795;SDS011;40693;43.884;20.340;2023-11-18T06:16:37;6.03;;;3.57;;
54795;SDS011;40693;43.884;20.340;2023-11-18T06:19:04;6.00;;;2.47;;
54795;SDS011;40693;43.884;20.340;2023-11-18T06:21:31;8.13;;;2.50;;
54795;SDS011;40693;43.884;20.340;2023-11-18T06:23:57;2.53;;;1.93;;
54795;SDS011;40693;43.884;20.340;2023-11-18T06:26:25;4.53;;;2.27;;
54795;SDS011;40693;43.884;20.340;2023-11-18T06:28:51;4.60;;;2.70;;
54795;SDS011;40693;43.884;20.340;2023-11-18T06:31:18;6.47;;;2.70;;
54795;SDS011;40693;43.884;20.340;2023-11-18T06:33:49;5.13;;;2.92;;
54795;SDS011;40693;43.884;20.340;2023-11-18T06:38:47;6.10;;;3.10;;
54795;SDS011;40693;43.884;20.340;2023-11-18T06:41:18;7.13;;;4.20;;
54795;SDS011;40693;43.884;20.340;2023-11-18T06:43:48;6.57;;;4.40;;
54795;SDS011;40693;43.884;20.340;2023-11-18T06:46:20;8.57;;;5.70;;
54795;SDS011;40693;43.884;20.340;2023-11-18T06:48:53;10.25;;;7.00;;
54795;SDS011;40693;43.884;20.340;2023-11-18T06:51:23;22.98;;;16.00;;
54795;SDS011;40693;43.884;20.340;2023-11-18T06:53:51;10.03;;;5.23;;
54795;SDS011;40693;43.884;20.340;2023-11-18T06:56:20;6.25;;;4.30;;
54795;SDS011;40693;43.884;20.340;2023-11-18T06:58:46;7.47;;;4.30;;
54795;SDS011;40693;43.884;20.340;2023-11-18T07:01:15;5.90;;;4.10;;
54795;SDS011;40693;43.884;20.340;2023-11-18T07:03:45;8.70;;;5.30;;
54795;SDS011;40693;43.884;20.340;2023-11-18T07:06:18;6.50;;;3.27;;
54795;SDS011;40693;43.884;20.340;2023-11-18T07:08:50;6.80;;;3.90;;
54795;SDS011;40693;43.884;20.340;2023-11-18T07:11:16;3.60;;;3.00;;
54795;SDS011;40693;43.884;20.340;2023-11-18T07:13:43;5.75;;;2.90;;
54795;SDS011;40693;43.884;20.340;2023-11-18T07:16:09;5.88;;;3.92;;
54795;SDS011;40693;43.884;20.340;2023-11-18T07:18:35;9.37;;;6.50;;
54795;SDS011;40693;43.884;20.340;2023-11-18T07:21:03;13.50;;;10.05;;
54795;SDS011;40693;43.884;20.340;2023-11-18T07:23:32;13.37;;;9.93;;
54795;SDS011;40693;43.884;20.340;2023-11-18T07:25:59;21.20;;;14.57;;
54795;SDS011;40693;43.884;20.340;2023-11-18T07:28:25;29.90;;;20.05;;
54795;SDS011;40693;43.884;20.340;2023-11-18T07:30:51;9.13;;;6.50;;
54795;SDS011;40693;43.884;20.340;2023-11-18T07:33:18;9.30;;;6.83;;
54795;SDS011;40693;43.884;20.340;2023-11-18T07:35:45;7.37;;;5.17;;
54795;SDS011;40693;43.884;20.340;2023-11-18T07:38:13;4.93;;;3.73;;
54795;SDS011;40693;43.884;20.340;2023-11-18T07:40:39;4.80;;;3.43;;
54795;SDS011;40693;43.884;20.340;2023-11-18T07:43:17;4.03;;;3.40;;
54795;SDS011;40693;43.884;20.340;2023-11-18T07:45:46;5.07;;;2.83;;
54795;SDS011;40693;43.884;20.340;2023-11-18T07:48:14;4.43;;;2.80;;
54795;SDS011;40693;43.884;20.340;2023-11-18T07:50:42;4.03;;;2.40;;
54795;SDS011;40693;43.884;20.340;2023-11-18T07:53:12;5.30;;;4.33;;
54795;SDS011;40693;43.884;20.340;2023-11-18T07:55:38;5.47;;;3.90;;
54795;SDS011;40693;43.884;20.340;2023-11-18T07:58:07;5.07;;;3.33;;
54795;SDS011;40693;43.884;20.340;2023-11-18T08:00:36;6.28;;;4.18;;
54795;SDS011;40693;43.884;20.340;2023-11-18T08:03:05;4.87;;;3.40;;
54795;SDS011;40693;43.884;20.340;2023-11-18T08:05:36;7.43;;;4.10;;
54795;SDS011;40693;43.884;20.340;2023-11-18T08:08:04;4.23;;;3.07;;
54795;SDS011;40693;43.884;20.340;2023-11-18T08:10:31;3.78;;;2.38;;
54795;SDS011;40693;43.884;20.340;2023-11-18T08:12:58;4.23;;;2.73;;
54795;SDS011;40693;43.884;20.340;2023-11-18T08:15:24;5.90;;;3.30;;
54795;SDS011;40693;43.884;20.340;2023-11-18T08:17:52;3.03;;;1.90;;
54795;SDS011;40693;43.884;20.340;2023-11-18T08:20:18;4.30;;;2.57;;
54795;SDS011;40693;43.884;20.340;2023-11-18T08:22:48;8.87;;;5.17;;
54795;SDS011;40693;43.884;20.340;2023-11-18T08:25:14;12.80;;;6.80;;
54795;SDS011;40693;43.884;20.340;2023-11-18T08:27:40;22.10;;;12.47;;
54795;SDS011;40693;43.884;20.340;2023-11-18T08:30:06;16.38;;;8.93;;
54795;SDS011;40693;43.884;20.340;2023-11-18T08:32:37;6.20;;;4.03;;
54795;SDS011;40693;43.884;20.340;2023-11-18T08:35:04;7.57;;;4.90;;
54795;SDS011;40693;43.884;20.340;2023-11-18T08:37:34;10.63;;;7.45;;
54795;SDS011;40693;43.884;20.340;2023-11-18T08:40:03;8.93;;;5.40;;
54795;SDS011;40693;43.884;20.340;2023-11-18T08:42:31;6.63;;;4.53;;
54795;SDS011;40693;43.884;20.340;2023-11-18T08:44:59;9.40;;;5.57;;
54795;SDS011;40693;43.884;20.340;2023-11-18T08:47:26;7.30;;;4.80;;
54795;SDS011;40693;43.884;20.340;2023-11-18T08:49:52;11.27;;;4.90;;
54795;SDS011;40693;43.884;20.340;2023-11-18T08:52:18;10.70;;;6.25;;
54795;SDS011;40693;43.884;20.340;2023-11-18T08:54:44;3.95;;;3.33;;
54795;SDS011;40693;43.884;20.340;2023-11-18T08:57:45;6.32;;;3.95;;
54795;SDS011;40693;43.884;20.340;2023-11-18T09:00:26;5.40;;;4.07;;
54795;SDS011;40693;43.884;20.340;2023-11-18T09:03:11;8.48;;;4.35;;
54795;SDS011;40693;43.884;20.340;2023-11-18T09:05:50;9.50;;;5.03;;
54795;SDS011;40693;43.884;20.340;2023-11-18T09:11:03;4.55;;;3.17;;
54795;SDS011;40693;43.884;20.340;2023-11-18T09:13:31;10.98;;;6.32;;
54795;SDS011;40693;43.884;20.340;2023-11-18T09:16:00;10.77;;;5.63;;
54795;SDS011;40693;43.884;20.340;2023-11-18T09:18:28;7.50;;;4.57;;
54795;SDS011;40693;43.884;20.340;2023-11-18T09:20:58;9.05;;;4.70;;
54795;SDS011;40693;43.884;20.340;2023-11-18T09:23:26;6.95;;;4.43;;
54795;SDS011;40693;43.884;20.340;2023-11-18T09:25:55;14.43;;;8.07;;
54795;SDS011;40693;43.884;20.340;2023-11-18T09:28:22;6.65;;;4.50;;
54795;SDS011;40693;43.884;20.340;2023-11-18T09:30:54;7.00;;;5.35;;
54795;SDS011;40693;43.884;20.340;2023-11-18T09:33:25;9.52;;;5.45;;
54795;SDS011;40693;43.884;20.340;2023-11-18T09:36:04;4.97;;;3.27;;
54795;SDS011;40693;43.884;20.340;2023-11-18T09:38:35;3.60;;;2.53;;
54795;SDS011;40693;43.884;20.340;2023-11-18T09:41:05;6.78;;;3.67;;
54795;SDS011;40693;43.884;20.340;2023-11-18T09:43:45;6.82;;;4.15;;
54795;SDS011;40693;43.884;20.340;2023-11-18T09:46:14;9.07;;;4.10;;
54795;SDS011;40693;43.884;20.340;2023-11-18T09:51:12;10.27;;;5.28;;
54795;SDS011;40693;43.884;20.340;2023-11-18T09:53:46;5.88;;;4.20;;
54795;SDS011;40693;43.884;20.340;2023-11-18T09:56:31;9.13;;;5.22;;
54795;SDS011;40693;43.884;20.340;2023-11-18T09:59:10;5.57;;;3.33;;
54795;SDS011;40693;43.884;20.340;2023-11-18T10:01:41;7.97;;;3.90;;
54795;SDS011;40693;43.884;20.340;2023-11-18T10:04:11;4.50;;;2.72;;
54795;SDS011;40693;43.884;20.340;2023-11-18T10:06:42;5.18;;;3.92;;
54795;SDS011;40693;43.884;20.340;2023-11-18T10:09:09;5.30;;;3.33;;
54795;SDS011;40693;43.884;20.340;2023-11-18T10:11:43;6.07;;;4.10;;
54795;SDS011;40693;43.884;20.340;2023-11-18T10:14:14;6.85;;;4.03;;
54795;SDS011;40693;43.884;20.340;2023-11-18T10:16:41;4.88;;;2.45;;
54795;SDS011;40693;43.884;20.340;2023-11-18T10:19:11;4.70;;;3.03;;
54795;SDS011;40693;43.884;20.340;2023-11-18T10:21:37;7.40;;;3.90;;
54795;SDS011;40693;43.884;20.340;2023-11-18T10:24:06;6.43;;;3.85;;
54795;SDS011;40693;43.884;20.340;2023-11-18T10:26:45;7.32;;;3.53;;
54795;SDS011;40693;43.884;20.340;2023-11-18T10:29:21;6.43;;;4.10;;
54795;SDS011;40693;43.884;20.340;2023-11-18T10:31:48;8.43;;;4.65;;
54795;SDS011;40693;43.884;20.340;2023-11-18T10:34:18;9.05;;;4.40;;
54795;SDS011;40693;43.884;20.340;2023-11-18T10:37:00;6.72;;;4.65;;
54795;SDS011;40693;43.884;20.340;2023-11-18T10:39:28;6.38;;;4.35;;
54795;SDS011;40693;43.884;20.340;2023-11-18T10:42:00;5.18;;;4.05;;
54795;SDS011;40693;43.884;20.340;2023-11-18T10:44:26;5.88;;;3.80;;
54795;SDS011;40693;43.884;20.340;2023-11-18T10:46:52;6.75;;;4.10;;
54795;SDS011;40693;43.884;20.340;2023-11-18T10:49:19;5.03;;;3.60;;
54795;SDS011;40693;43.884;20.340;2023-11-18T10:51:46;5.75;;;3.35;;
54795;SDS011;40693;43.884;20.340;2023-11-18T10:54:12;4.50;;;2.83;;
54795;SDS011;40693;43.884;20.340;2023-11-18T10:56:48;7.70;;;3.90;;
54795;SDS011;40693;43.884;20.340;2023-11-18T10:59:15;6.05;;;3.88;;
54795;SDS011;40693;43.884;20.340;2023-11-18T11:01:41;3.38;;;2.30;;
54795;SDS011;40693;43.884;20.340;2023-11-18T11:04:09;4.60;;;2.95;;
54795;SDS011;40693;43.884;20.340;2023-11-18T11:06:36;8.35;;;5.50;;
54795;SDS011;40693;43.884;20.340;2023-11-18T11:09:17;7.15;;;4.22;;
54795;SDS011;40693;43.884;20.340;2023-11-18T11:11:56;8.00;;;5.28;;
54795;SDS011;40693;43.884;20.340;2023-11-18T11:14:33;7.90;;;4.45;;
54795;SDS011;40693;43.884;20.340;2023-11-18T11:17:16;7.22;;;4.20;;
54795;SDS011;40693;43.884;20.340;2023-11-18T11:20:07;2.63;;;1.83;;
54795;SDS011;40693;43.884;20.340;2023-11-18T11:28:24;4.53;;;3.10;;
54795;SDS011;40693;43.884;20.340;2023-11-18T11:31:03;7.93;;;3.72;;
54795;SDS011;40693;43.884;20.340;2023-11-18T11:33:57;7.35;;;3.63;;
54795;SDS011;40693;43.884;20.340;2023-11-18T11:36:35;8.00;;;4.50;;
54795;SDS011;40693;43.884;20.340;2023-11-18T11:39:06;8.57;;;5.32;;
54795;SDS011;40693;43.884;20.340;2023-11-18T11:41:39;9.80;;;4.72;;
54795;SDS011;40693;43.884;20.340;2023-11-18T11:44:10;11.55;;;4.93;;
54795;SDS011;40693;43.884;20.340;2023-11-18T11:46:38;7.18;;;3.72;;
54795;SDS011;40693;43.884;20.340;2023-11-18T11:49:07;9.25;;;5.50;;
54795;SDS011;40693;43.884;20.340;2023-11-18T11:51:49;9.20;;;4.20;;
54795;SDS011;40693;43.884;20.340;2023-11-18T11:56:55;10.70;;;6.13;;
54795;SDS011;40693;43.884;20.340;2023-11-18T12:02:23;7.18;;;4.10;;
54795;SDS011;40693;43.884;20.340;2023-11-18T12:04:54;5.65;;;3.25;;
54795;SDS011;40693;43.884;20.340;2023-11-18T12:07:23;5.85;;;3.45;;
54795;SDS011;40693;43.884;20.340;2023-11-18T12:09:56;7.78;;;5.00;;
54795;SDS011;40693;43.884;20.340;2023-11-18T12:12:26;6.68;;;4.78;;
54795;SDS011;40693;43.884;20.340;2023-11-18T12:15:01;7.55;;;5.28;;
54795;SDS011;40693;43.884;20.340;2023-11-18T12:20:38;11.90;;;6.75;;
54795;SDS011;40693;43.884;20.340;2023-11-18T12:23:10;21.52;;;11.30;;
54795;SDS011;40693;43.884;20.340;2023-11-18T12:25:46;9.63;;;6.25;;
54795;SDS011;40693;43.884;20.340;2023-11-18T12:28:19;12.02;;;7.45;;
54795;SDS011;40693;43.884;20.340;2023-11-18T12:30:46;39.50;;;18.88;;
54795;SDS011;40693;43.884;20.340;2023-11-18T12:36:34;7.50;;;4.15;;
54795;SDS011;40693;43.884;20.340;2023-11-18T12:48:08;4.57;;;2.47;;
54795;SDS011;40693;43.884;20.340;2023-11-18T12:50:42;12.77;;;5.82;;
54795;SDS011;40693;43.884;20.340;2023-11-18T12:53:11;11.07;;;5.28;;
54795;SDS011;40693;43.884;20.340;2023-11-18T12:55:39;7.88;;;3.88;;
54795;SDS011;40693;43.884;20.340;2023-11-18T12:58:06;8.45;;;5.93;;
54795;SDS011;40693;43.884;20.340;2023-11-18T13:00:32;13.15;;;8.70;;
54795;SDS011;40693;43.884;20.340;2023-11-18T13:03:00;15.30;;;6.47;;
54795;SDS011;40693;43.884;20.340;2023-11-18T13:05:26;5.75;;;3.17;;
54795;SDS011;40693;43.884;20.340;2023-11-18T13:07:55;17.88;;;7.97;;
54795;SDS011;40693;43.884;20.340;2023-11-18T13:10:23;7.55;;;4.30;;
54795;SDS011;40693;43.884;20.340;2023-11-18T13:12:52;10.10;;;6.25;;
54795;SDS011;40693;43.884;20.340;2023-11-18T13:15:18;8.40;;;5.22;;
54795;SDS011;40693;43.884;20.340;2023-11-18T13:18:03;7.88;;;4.93;;
54795;SDS011;40693;43.884;20.340;2023-11-18T13:20:33;13.15;;;7.60;;
54795;SDS011;40693;43.884;20.340;2023-11-18T13:23:01;16.40;;;8.18;;
54795;SDS011;40693;43.884;20.340;2023-11-18T13:25:33;13.25;;;8.15;;
54795;SDS011;40693;43.884;20.340;2023-11-18T13:28:01;8.23;;;6.20;;
54795;SDS011;40693;43.884;20.340;2023-11-18T13:30:30;14.13;;;7.80;;
54795;SDS011;40693;43.884;20.340;2023-11-18T13:32:55;19.48;;;8.73;;
54795;SDS011;40693;43.884;20.340;2023-11-18T13:35:22;10.63;;;5.65;;
54795;SDS011;40693;43.884;20.340;2023-11-18T13:37:49;8.52;;;4.50;;
54795;SDS011;40693;43.884;20.340;2023-11-18T13:40:15;17.80;;;8.05;;
54795;SDS011;40693;43.884;20.340;2023-11-18T13:42:44;8.95;;;6.43;;
54795;SDS011;40693;43.884;20.340;2023-11-18T13:45:11;9.52;;;5.30;;
54795;SDS011;40693;43.884;20.340;2023-11-18T13:47:48;7.75;;;4.70;;
54795;SDS011;40693;43.884;20.340;2023-11-18T13:50:17;11.90;;;7.45;;
54795;SDS011;40693;43.884;20.340;2023-11-18T13:52:44;8.65;;;5.75;;
54795;SDS011;40693;43.884;20.340;2023-11-18T13:55:11;19.40;;;11.73;;
54795;SDS011;40693;43.884;20.340;2023-11-18T13:57:42;14.77;;;9.25;;
54795;SDS011;40693;43.884;20.340;2023-11-18T14:00:09;19.45;;;11.27;;
54795;SDS011;40693;43.884;20.340;2023-11-18T14:02:40;30.48;;;16.98;;
54795;SDS011;40693;43.884;20.340;2023-11-18T14:05:16;9.30;;;5.80;;
54795;SDS011;40693;43.884;20.340;2023-11-18T14:07:42;15.75;;;9.07;;
54795;SDS011;40693;43.884;20.340;2023-11-18T14:10:10;27.67;;;17.70;;
54795;SDS011;40693;43.884;20.340;2023-11-18T14:12:40;20.75;;;11.68;;
54795;SDS011;40693;43.884;20.340;2023-11-18T14:15:37;17.33;;;10.48;;
54795;SDS011;40693;43.884;20.340;2023-11-18T14:18:03;26.60;;;15.50;;
54795;SDS011;40693;43.884;20.340;2023-11-18T14:20:32;15.65;;;10.20;;
54795;SDS011;40693;43.884;20.340;2023-11-18T14:23:00;23.83;;;13.15;;
54795;SDS011;40693;43.884;20.340;2023-11-18T14:25:28;17.85;;;11.15;;
54795;SDS011;40693;43.884;20.340;2023-11-18T14:27:58;17.67;;;10.18;;
54795;SDS011;40693;43.884;20.340;2023-11-18T14:30:24;11.48;;;4.78;;
54795;SDS011;40693;43.884;20.340;2023-11-18T14:32:51;11.30;;;5.35;;
54795;SDS011;40693;43.884;20.340;2023-11-18T14:35:17;8.02;;;4.88;;
54795;SDS011;40693;43.884;20.340;2023-11-18T14:37:43;7.97;;;5.65;;
54795;SDS011;40693;43.884;20.340;2023-11-18T14:40:14;7.30;;;4.63;;
54795;SDS011;40693;43.884;20.340;2023-11-18T14:42:47;11.45;;;7.22;;
54795;SDS011;40693;43.884;20.340;2023-11-18T14:45:16;8.05;;;4.28;;
54795;SDS011;40693;43.884;20.340;2023-11-18T14:47:42;8.35;;;4.28;;
54795;SDS011;40693;43.884;20.340;2023-11-18T14:50:10;8.10;;;4.50;;
54795;SDS011;40693;43.884;20.340;2023-11-18T14:55:12;10.00;;;6.97;;
54795;SDS011;40693;43.884;20.340;2023-11-18T14:57:39;11.20;;;6.38;;
54795;SDS011;40693;43.884;20.340;2023-11-18T15:00:06;13.88;;;8.18;;
54795;SDS011;40693;43.884;20.340;2023-11-18T15:02:44;14.13;;;7.13;;
54795;SDS011;40693;43.884;20.340;2023-11-18T15:05:11;10.00;;;6.43;;
54795;SDS011;40693;43.884;20.340;2023-11-18T15:07:37;11.77;;;7.65;;
54795;SDS011;40693;43.884;20.340;2023-11-18T15:10:03;11.52;;;6.80;;
54795;SDS011;40693;43.884;20.340;2023-11-18T15:12:29;17.27;;;8.60;;
54795;SDS011;40693;43.884;20.340;2023-11-18T15:14:56;18.20;;;12.80;;
54795;SDS011;40693;43.884;20.340;2023-11-18T15:17:24;6.55;;;4.15;;
54795;SDS011;40693;43.884;20.340;2023-11-18T15:19:50;10.57;;;7.20;;